Weather History for Centerville, IA

Change the Weather History Date:

Sunday, November 18, 2012

  Actual Average Record
Temperature  
Mean Temperature 46 °F -  
Max Temperature 59 °F 51 °F 73 °F (1976)
Min Temperature 33 °F 32 °F 5 °F (2014)
Degree Days  
Heating Degree Days 19    
Moisture  
Dew Point 31 °F    
Average Humidity 53    
Maximum Humidity 75    
Minimum Humidity 36    
Precipitation  
Precipitation 0.00 in - - ()
Sea Level Pressure  
Sea Level Pressure 30.25 in    
Wind  
Wind Speed 9 mph (SSE)    
Max Wind Speed 16 mph    
Max Gust Speed 21 mph    
Visibility 10 miles    
Events      
Averages and records for this station are not official NWS values.
T = Trace of Precipitation, MM = Missing Value Source: NWS Daily Summary

Daily Weather History Graph

Daily Weather History Graph

Search for Another Location

Airport:

Trip Planner

Search our weather history database for the weather conditions in past years. The results will help you decide how hot, cold, wet, or windy it might be!

Date:

Astronomy

Nov. 18, 2012 Rise Set
Actual Time 7:02 AM CST 4:50 PM CST
Civil Twilight 6:32 AM CST 5:20 PM CST
Nautical Twilight 5:59 AM CST 5:53 PM CST
Astronomical Twilight 5:27 AM CST 6:26 PM CST
Moon 11:29 AM CST (11/18) 10:11 PM CST (11/18)
Length of Visible Light 10h 47m
Length of Day
9h 48m
Waxing Crescent, 30% of the Moon is Illuminated
Nov 18
Waxing Crescent
Nov 20
First Quarter
Nov 28
Full
Dec 6
Last Quarter
Dec 13
New

Hourly Weather History & Observations

Time (CST) Temp. Windchill Dew Point Humidity Pressure Visibility Wind Dir Wind Speed Gust Speed Precip Events Conditions
12:15 AM 41.0 °F 35.2 °F 28.4 °F 61% 30.32 in 10.0 mi SE 9.2 mph - N/A   Clear
12:35 AM 41.0 °F 35.8 °F 28.4 °F 61% 30.32 in 10.0 mi SE 8.1 mph - N/A   Clear
12:55 AM 41.0 °F 35.2 °F 28.4 °F 61% 30.31 in 10.0 mi SE 9.2 mph - N/A   Clear
1:15 AM 39.2 °F 33.0 °F 28.4 °F 65% 30.31 in 10.0 mi SE 9.2 mph - N/A   Clear
1:35 AM 39.2 °F 33.0 °F 28.4 °F 65% 30.32 in 10.0 mi SE 9.2 mph - N/A   Clear
1:55 AM 39.2 °F 33.6 °F 30.2 °F 70% 30.32 in 10.0 mi SE 8.1 mph - N/A   Clear
2:15 AM 37.4 °F 31.4 °F 28.4 °F 70% 30.32 in 10.0 mi SSE 8.1 mph - N/A   Clear
2:35 AM 37.4 °F 30.8 °F 28.4 °F 70% 30.32 in 10.0 mi SE 9.2 mph - N/A   Clear
2:55 AM 37.4 °F 30.8 °F 28.4 °F 70% 30.31 in 10.0 mi SE 9.2 mph - N/A   Clear
3:15 AM 37.4 °F 30.8 °F 28.4 °F 70% 30.31 in 10.0 mi SSE 9.2 mph - N/A   Clear
3:35 AM 37.4 °F 30.8 °F 28.4 °F 70% 30.31 in 10.0 mi SSE 9.2 mph - N/A   Clear
4:15 AM 37.4 °F 31.4 °F 28.4 °F 70% 30.29 in 10.0 mi SSE 8.1 mph - N/A   Clear
4:35 AM 37.4 °F 32.1 °F 28.4 °F 70% 30.29 in 10.0 mi SSE 6.9 mph - N/A   Clear
4:55 AM 37.4 °F 32.1 °F 28.4 °F 70% 30.30 in 10.0 mi SSE 6.9 mph - N/A   Clear
5:15 AM 35.6 °F 30.7 °F 28.4 °F 75% 30.30 in - SSE 5.8 mph - N/A   Clear
5:35 AM 35.6 °F 30.7 °F 28.4 °F 75% 30.29 in - SE 5.8 mph - N/A   Clear
5:55 AM 35.6 °F 30.7 °F 26.6 °F 70% 30.29 in - SE 5.8 mph - N/A   Clear
6:15 AM 33.8 °F 27.7 °F 26.6 °F 75% 30.29 in - SE 6.9 mph - N/A   Clear
6:35 AM 35.6 °F 29.9 °F 28.4 °F 75% 30.29 in - SSE 6.9 mph - N/A   Clear
6:55 AM 35.6 °F 29.9 °F 28.4 °F 75% 30.29 in - SSE 6.9 mph - N/A   Clear
7:15 AM 35.6 °F 30.7 °F 26.6 °F 70% 30.29 in - SSE 5.8 mph - N/A   Clear
7:35 AM 35.6 °F 30.7 °F 28.4 °F 75% 30.29 in - SSE 5.8 mph - N/A   Clear
7:55 AM 37.4 °F 32.8 °F 28.4 °F 70% 30.29 in 10.0 mi SSE 5.8 mph - N/A   Clear
8:15 AM 39.2 °F 34.2 °F 28.4 °F 65% 30.29 in 10.0 mi SSE 6.9 mph - N/A   Clear
8:35 AM 41.0 °F 34.7 °F 28.4 °F 61% 30.29 in 10.0 mi South 10.4 mph - N/A   Clear
8:55 AM 44.6 °F 39.7 °F 30.2 °F 57% 30.30 in 10.0 mi South 9.2 mph - N/A   Clear
9:15 AM 46.4 °F 41.1 °F 30.2 °F 53% 30.30 in 10.0 mi South 11.5 mph - N/A   Clear
9:35 AM 48.2 °F - 30.2 °F 50% 30.29 in 10.0 mi South 12.7 mph - N/A   Clear
9:55 AM 50.0 °F - 30.2 °F 47% 30.29 in 10.0 mi South 12.7 mph - N/A   Clear
10:15 AM 51.8 °F - 30.2 °F 44% 30.29 in 10.0 mi South 11.5 mph - N/A   Clear
10:35 AM 55.4 °F - 32.0 °F 41% 30.28 in 10.0 mi South 11.5 mph - N/A   Clear
10:55 AM 55.4 °F - 32.0 °F 41% 30.28 in 10.0 mi SSE 12.7 mph - N/A   Clear
11:15 AM 57.2 °F - 32.0 °F 38% 30.28 in 10.0 mi South 11.5 mph - N/A   Clear
11:35 AM 57.2 °F - 32.0 °F 38% 30.28 in 10.0 mi South 16.1 mph - N/A   Clear
11:55 AM 59.0 °F - 32.0 °F 36% 30.26 in 10.0 mi South 16.1 mph - N/A   Clear
12:15 PM 59.0 °F - 32.0 °F 36% 30.24 in 10.0 mi South 11.5 mph - N/A   Clear
12:35 PM 59.0 °F - 32.0 °F 36% 30.24 in 10.0 mi South 13.8 mph - N/A   Clear
12:55 PM 59.0 °F - 32.0 °F 36% 30.23 in 10.0 mi South 11.5 mph - N/A   Clear
1:15 PM 59.0 °F - 32.0 °F 36% 30.23 in 10.0 mi SSE 16.1 mph - N/A   Clear
1:35 PM 59.0 °F - 32.0 °F 36% 30.23 in 10.0 mi South 16.1 mph - N/A   Clear
1:55 PM 59.0 °F - 32.0 °F 36% 30.22 in 10.0 mi South 11.5 mph - N/A   Clear
2:15 PM 59.0 °F - 32.0 °F 36% 30.21 in 10.0 mi SSE 16.1 mph 20.7 mph N/A   Clear
2:35 PM 59.0 °F - 32.0 °F 36% 30.21 in 10.0 mi South 12.7 mph - N/A   Clear
2:55 PM 57.2 °F - 32.0 °F 38% 30.21 in 10.0 mi SSE 10.4 mph - N/A   Clear
3:15 PM 57.2 °F - 32.0 °F 38% 30.20 in 10.0 mi SSE 11.5 mph - N/A   Clear
3:35 PM 57.2 °F - 32.0 °F 38% 30.21 in 10.0 mi SE 10.4 mph - N/A   Clear
3:55 PM 55.4 °F - 32.0 °F 41% 30.21 in 10.0 mi SE 9.2 mph - N/A   Clear
4:15 PM 55.4 °F - 32.0 °F 41% 30.21 in 10.0 mi SE 9.2 mph - N/A   Clear
4:35 PM 53.6 °F - 32.0 °F 44% 30.21 in 10.0 mi SE 6.9 mph - N/A   Clear
4:55 PM 51.8 °F - 32.0 °F 47% 30.21 in 10.0 mi SE 8.1 mph - N/A   Clear
5:15 PM 51.8 °F - 32.0 °F 47% 30.22 in 10.0 mi SE 6.9 mph - N/A   Clear
5:35 PM 51.8 °F - 32.0 °F 47% 30.22 in 10.0 mi SE 8.1 mph - N/A   Clear
5:55 PM 50.0 °F - 32.0 °F 50% 30.23 in 10.0 mi SE 8.1 mph - N/A   Clear
6:15 PM 51.8 °F - 32.0 °F 47% 30.22 in 10.0 mi SE 9.2 mph - N/A   Clear
6:35 PM 53.6 °F - 32.0 °F 44% 30.22 in 10.0 mi SE 10.4 mph - N/A   Clear
6:55 PM 51.8 °F - 32.0 °F 47% 30.21 in 10.0 mi SE 11.5 mph - N/A   Clear
7:15 PM 51.8 °F - 32.0 °F 47% 30.21 in 10.0 mi SE 11.5 mph - N/A   Clear
7:35 PM 51.8 °F - 32.0 °F 47% 30.21 in 10.0 mi SE 11.5 mph - N/A   Partly Cloudy
7:55 PM 51.8 °F - 32.0 °F 47% 30.21 in 10.0 mi SE 10.4 mph - N/A   Clear
8:15 PM 51.8 °F - 32.0 °F 47% 30.21 in 10.0 mi SE 10.4 mph - N/A   Partly Cloudy
8:35 PM 50.0 °F - 32.0 °F 50% 30.21 in 10.0 mi SE 6.9 mph - N/A   Clear
8:55 PM 50.0 °F - 32.0 °F 50% 30.21 in 10.0 mi SE 9.2 mph - N/A   Partly Cloudy
9:15 PM 50.0 °F - 32.0 °F 50% 30.21 in 10.0 mi SE 8.1 mph - N/A   Clear
9:35 PM 48.2 °F - 32.0 °F 54% 30.21 in 10.0 mi SE 9.2 mph - N/A   Partly Cloudy
9:55 PM 50.0 °F - 32.0 °F 50% 30.20 in 10.0 mi SE 11.5 mph - N/A   Partly Cloudy
10:15 PM 50.0 °F - 32.0 °F 50% 30.20 in 10.0 mi SE 11.5 mph - N/A   Clear
10:35 PM 50.0 °F - 32.0 °F 50% 30.19 in 10.0 mi SE 12.7 mph - N/A   Mostly Cloudy
10:55 PM 50.0 °F - 32.0 °F 50% 30.20 in 10.0 mi SE 11.5 mph - N/A   Mostly Cloudy
11:15 PM 50.0 °F - 32.0 °F 50% 30.20 in 10.0 mi SE 10.4 mph - N/A   Overcast
11:35 PM 50.0 °F - 32.0 °F 50% 30.20 in 10.0 mi SE 10.4 mph - N/A   Overcast
11:55 PM 50.0 °F - 32.0 °F 50% 30.20 in 10.0 mi SSE 11.5 mph - N/A   Overcast